sensor_id;sensor_type;location;lat;lon;timestamp;temperature;humidity
25945;SHT31;13742;49.306;8.636;2024-03-02T00:00:39;7.17;85.38
25945;SHT31;13742;49.306;8.636;2024-03-02T00:01:39;7.17;85.22
25945;SHT31;13742;49.306;8.636;2024-03-02T00:02:49;7.17;85.08
25945;SHT31;13742;49.306;8.636;2024-03-02T00:03:39;7.17;85.24
25945;SHT31;13742;49.306;8.636;2024-03-02T00:04:39;7.18;85.92
25945;SHT31;13742;49.306;8.636;2024-03-02T00:05:39;7.14;85.73
25945;SHT31;13742;49.306;8.636;2024-03-02T00:06:39;7.13;85.74
25945;SHT31;13742;49.306;8.636;2024-03-02T00:07:41;7.17;85.70
25945;SHT31;13742;49.306;8.636;2024-03-02T00:08:39;7.17;86.10
25945;SHT31;13742;49.306;8.636;2024-03-02T00:09:39;7.15;86.05
25945;SHT31;13742;49.306;8.636;2024-03-02T00:10:42;7.15;85.92
25945;SHT31;13742;49.306;8.636;2024-03-02T00:11:39;7.15;85.87
25945;SHT31;13742;49.306;8.636;2024-03-02T00:12:39;7.17;85.69
25945;SHT31;13742;49.306;8.636;2024-03-02T00:13:39;7.17;85.72
25945;SHT31;13742;49.306;8.636;2024-03-02T00:14:39;7.17;85.77
25945;SHT31;13742;49.306;8.636;2024-03-02T00:15:46;7.18;85.64
25945;SHT31;13742;49.306;8.636;2024-03-02T00:16:40;7.18;86.28
25945;SHT31;13742;49.306;8.636;2024-03-02T00:17:39;7.17;86.16
25945;SHT31;13742;49.306;8.636;2024-03-02T00:18:39;7.20;86.19
25945;SHT31;13742;49.306;8.636;2024-03-02T00:19:39;7.18;85.83
25945;SHT31;13742;49.306;8.636;2024-03-02T00:20:39;7.18;85.96
25945;SHT31;13742;49.306;8.636;2024-03-02T00:21:39;7.20;85.88
25945;SHT31;13742;49.306;8.636;2024-03-02T00:22:39;7.18;86.15
25945;SHT31;13742;49.306;8.636;2024-03-02T00:23:39;7.23;85.82
25945;SHT31;13742;49.306;8.636;2024-03-02T00:24:39;7.20;85.93
25945;SHT31;13742;49.306;8.636;2024-03-02T00:25:54;7.20;85.73
25945;SHT31;13742;49.306;8.636;2024-03-02T00:26:39;7.20;85.86
25945;SHT31;13742;49.306;8.636;2024-03-02T00:27:39;7.17;85.83
25945;SHT31;13742;49.306;8.636;2024-03-02T00:28:39;7.15;85.97
25945;SHT31;13742;49.306;8.636;2024-03-02T00:29:40;7.15;85.73
25945;SHT31;13742;49.306;8.636;2024-03-02T00:30:51;7.20;85.94
25945;SHT31;13742;49.306;8.636;2024-03-02T00:31:39;7.17;85.93
25945;SHT31;13742;49.306;8.636;2024-03-02T00:32:39;7.18;85.94
25945;SHT31;13742;49.306;8.636;2024-03-02T00:33:45;7.18;85.71
25945;SHT31;13742;49.306;8.636;2024-03-02T00:34:39;7.14;85.92
25945;SHT31;13742;49.306;8.636;2024-03-02T00:35:39;7.15;85.85
25945;SHT31;13742;49.306;8.636;2024-03-02T00:36:39;7.17;85.71
25945;SHT31;13742;49.306;8.636;2024-03-02T00:37:39;7.15;85.54
25945;SHT31;13742;49.306;8.636;2024-03-02T00:38:44;7.14;85.74
25945;SHT31;13742;49.306;8.636;2024-03-02T00:39:39;7.15;85.79
25945;SHT31;13742;49.306;8.636;2024-03-02T00:40:39;7.14;85.88
25945;SHT31;13742;49.306;8.636;2024-03-02T00:41:40;7.11;85.97
25945;SHT31;13742;49.306;8.636;2024-03-02T00:42:39;7.10;85.77
25945;SHT31;13742;49.306;8.636;2024-03-02T00:44:39;7.11;85.97
25945;SHT31;13742;49.306;8.636;2024-03-02T00:45:40;7.13;85.99
25945;SHT31;13742;49.306;8.636;2024-03-02T00:46:40;7.11;85.99
25945;SHT31;13742;49.306;8.636;2024-03-02T00:47:39;7.08;85.67
25945;SHT31;13742;49.306;8.636;2024-03-02T00:48:47;7.08;85.86
25945;SHT31;13742;49.306;8.636;2024-03-02T00:49:39;7.07;85.92
25945;SHT31;13742;49.306;8.636;2024-03-02T00:50:39;7.06;86.05
25945;SHT31;13742;49.306;8.636;2024-03-02T00:51:39;7.07;86.04
25945;SHT31;13742;49.306;8.636;2024-03-02T00:52:40;7.08;86.46
25945;SHT31;13742;49.306;8.636;2024-03-02T00:53:39;7.06;86.23
25945;SHT31;13742;49.306;8.636;2024-03-02T00:54:39;7.07;86.30
25945;SHT31;13742;49.306;8.636;2024-03-02T00:55:39;7.07;86.18
25945;SHT31;13742;49.306;8.636;2024-03-02T00:56:41;7.06;86.23
25945;SHT31;13742;49.306;8.636;2024-03-02T00:57:39;7.03;86.37
25945;SHT31;13742;49.306;8.636;2024-03-02T00:58:39;7.04;86.25
25945;SHT31;13742;49.306;8.636;2024-03-02T00:59:39;7.04;86.31
25945;SHT31;13742;49.306;8.636;2024-03-02T01:00:39;7.07;86.59
25945;SHT31;13742;49.306;8.636;2024-03-02T01:01:39;7.04;86.44
25945;SHT31;13742;49.306;8.636;2024-03-02T01:02:39;7.01;86.31
25945;SHT31;13742;49.306;8.636;2024-03-02T01:03:39;7.01;86.16
25945;SHT31;13742;49.306;8.636;2024-03-02T01:04:39;7.01;86.52
25945;SHT31;13742;49.306;8.636;2024-03-02T01:05:42;7.00;86.47
25945;SHT31;13742;49.306;8.636;2024-03-02T01:06:39;7.04;86.90
25945;SHT31;13742;49.306;8.636;2024-03-02T01:07:39;7.00;86.62
25945;SHT31;13742;49.306;8.636;2024-03-02T01:08:39;7.00;86.78
25945;SHT31;13742;49.306;8.636;2024-03-02T01:09:39;6.99;86.80
25945;SHT31;13742;49.306;8.636;2024-03-02T01:10:39;7.03;86.67
25945;SHT31;13742;49.306;8.636;2024-03-02T01:11:39;7.01;86.67
25945;SHT31;13742;49.306;8.636;2024-03-02T01:12:39;7.01;86.87
25945;SHT31;13742;49.306;8.636;2024-03-02T01:13:39;7.00;86.67
25945;SHT31;13742;49.306;8.636;2024-03-02T01:14:39;7.03;86.59
25945;SHT31;13742;49.306;8.636;2024-03-02T01:15:39;7.01;86.61
25945;SHT31;13742;49.306;8.636;2024-03-02T01:16:39;7.01;86.61
25945;SHT31;13742;49.306;8.636;2024-03-02T01:17:39;6.99;86.47
25945;SHT31;13742;49.306;8.636;2024-03-02T01:18:39;7.01;86.40
25945;SHT31;13742;49.306;8.636;2024-03-02T01:19:41;6.99;86.73
25945;SHT31;13742;49.306;8.636;2024-03-02T01:20:39;6.99;86.47
25945;SHT31;13742;49.306;8.636;2024-03-02T01:21:39;6.96;86.50
25945;SHT31;13742;49.306;8.636;2024-03-02T01:22:39;6.97;86.45
25945;SHT31;13742;49.306;8.636;2024-03-02T01:23:39;6.96;86.35
25945;SHT31;13742;49.306;8.636;2024-03-02T01:24:39;6.96;86.50
25945;SHT31;13742;49.306;8.636;2024-03-02T01:25:39;6.93;86.28
25945;SHT31;13742;49.306;8.636;2024-03-02T01:26:39;6.96;86.37
25945;SHT31;13742;49.306;8.636;2024-03-02T01:27:39;6.93;86.46
25945;SHT31;13742;49.306;8.636;2024-03-02T01:28:39;6.93;86.34
25945;SHT31;13742;49.306;8.636;2024-03-02T01:29:39;6.92;86.44
25945;SHT31;13742;49.306;8.636;2024-03-02T01:30:39;6.92;86.24
25945;SHT31;13742;49.306;8.636;2024-03-02T01:31:42;6.90;86.26
25945;SHT31;13742;49.306;8.636;2024-03-02T01:32:39;6.90;86.29
25945;SHT31;13742;49.306;8.636;2024-03-02T01:33:39;6.89;86.69
25945;SHT31;13742;49.306;8.636;2024-03-02T01:34:39;6.89;86.53
25945;SHT31;13742;49.306;8.636;2024-03-02T01:35:39;6.87;86.45
25945;SHT31;13742;49.306;8.636;2024-03-02T01:36:39;6.86;86.32
25945;SHT31;13742;49.306;8.636;2024-03-02T01:37:39;6.84;86.11
25945;SHT31;13742;49.306;8.636;2024-03-02T01:38:39;6.86;86.06
25945;SHT31;13742;49.306;8.636;2024-03-02T01:39:39;6.83;86.47
25945;SHT31;13742;49.306;8.636;2024-03-02T01:40:39;6.84;86.32
25945;SHT31;13742;49.306;8.636;2024-03-02T01:41:39;6.83;86.79
25945;SHT31;13742;49.306;8.636;2024-03-02T01:42:39;6.80;86.43
25945;SHT31;13742;49.306;8.636;2024-03-02T01:43:39;6.83;86.50
25945;SHT31;13742;49.306;8.636;2024-03-02T01:44:40;6.84;86.85
25945;SHT31;13742;49.306;8.636;2024-03-02T01:45:39;6.84;86.74
25945;SHT31;13742;49.306;8.636;2024-03-02T01:46:39;6.80;86.98
25945;SHT31;13742;49.306;8.636;2024-03-02T01:47:39;6.80;86.75
25945;SHT31;13742;49.306;8.636;2024-03-02T01:48:39;6.79;86.84
25945;SHT31;13742;49.306;8.636;2024-03-02T01:49:40;6.79;86.85
25945;SHT31;13742;49.306;8.636;2024-03-02T01:50:39;6.82;87.22
25945;SHT31;13742;49.306;8.636;2024-03-02T01:51:39;6.79;86.96
25945;SHT31;13742;49.306;8.636;2024-03-02T01:52:39;6.80;86.96
25945;SHT31;13742;49.306;8.636;2024-03-02T01:53:39;6.80;86.87
25945;SHT31;13742;49.306;8.636;2024-03-02T01:54:39;6.79;86.80
25945;SHT31;13742;49.306;8.636;2024-03-02T01:55:39;6.79;86.78
25945;SHT31;13742;49.306;8.636;2024-03-02T01:56:39;6.78;86.88
25945;SHT31;13742;49.306;8.636;2024-03-02T01:57:39;6.78;86.85
25945;SHT31;13742;49.306;8.636;2024-03-02T01:58:39;6.79;86.95
25945;SHT31;13742;49.306;8.636;2024-03-02T01:59:39;6.79;86.92
25945;SHT31;13742;49.306;8.636;2024-03-02T02:00:39;6.76;86.68
25945;SHT31;13742;49.306;8.636;2024-03-02T02:01:39;6.76;86.54
25945;SHT31;13742;49.306;8.636;2024-03-02T02:02:39;6.75;86.66
25945;SHT31;13742;49.306;8.636;2024-03-02T02:03:40;6.75;86.82
25945;SHT31;13742;49.306;8.636;2024-03-02T02:04:39;6.75;86.83
25945;SHT31;13742;49.306;8.636;2024-03-02T02:05:39;6.75;86.82
25945;SHT31;13742;49.306;8.636;2024-03-02T02:06:39;6.75;86.89
25945;SHT31;13742;49.306;8.636;2024-03-02T02:07:40;6.75;86.85
25945;SHT31;13742;49.306;8.636;2024-03-02T02:08:39;6.76;86.74
25945;SHT31;13742;49.306;8.636;2024-03-02T02:09:39;6.73;86.67
25945;SHT31;13742;49.306;8.636;2024-03-02T02:10:39;6.73;86.65
25945;SHT31;13742;49.306;8.636;2024-03-02T02:11:39;6.72;86.59
25945;SHT31;13742;49.306;8.636;2024-03-02T02:12:39;6.75;86.61
25945;SHT31;13742;49.306;8.636;2024-03-02T02:13:39;6.72;86.51
25945;SHT31;13742;49.306;8.636;2024-03-02T02:14:47;6.73;86.65
25945;SHT31;13742;49.306;8.636;2024-03-02T02:15:39;6.73;86.60
25945;SHT31;13742;49.306;8.636;2024-03-02T02:16:39;6.72;86.45
25945;SHT31;13742;49.306;8.636;2024-03-02T02:17:39;6.72;86.38
25945;SHT31;13742;49.306;8.636;2024-03-02T02:18:39;6.69;86.45
25945;SHT31;13742;49.306;8.636;2024-03-02T02:19:40;6.72;86.32
25945;SHT31;13742;49.306;8.636;2024-03-02T02:20:39;6.69;86.39
25945;SHT31;13742;49.306;8.636;2024-03-02T02:21:42;6.68;86.50
25945;SHT31;13742;49.306;8.636;2024-03-02T02:22:39;6.69;86.47
25945;SHT31;13742;49.306;8.636;2024-03-02T02:23:39;6.68;86.55
25945;SHT31;13742;49.306;8.636;2024-03-02T02:24:40;6.65;86.47
25945;SHT31;13742;49.306;8.636;2024-03-02T02:25:39;6.68;86.52
25945;SHT31;13742;49.306;8.636;2024-03-02T02:26:39;6.63;86.43
25945;SHT31;13742;49.306;8.636;2024-03-02T02:27:39;6.68;86.65
25945;SHT31;13742;49.306;8.636;2024-03-02T02:28:39;6.66;86.57
25945;SHT31;13742;49.306;8.636;2024-03-02T02:29:39;6.66;86.46
25945;SHT31;13742;49.306;8.636;2024-03-02T02:30:39;6.63;86.56
25945;SHT31;13742;49.306;8.636;2024-03-02T02:31:40;6.63;86.39
25945;SHT31;13742;49.306;8.636;2024-03-02T02:32:39;6.59;86.48
25945;SHT31;13742;49.306;8.636;2024-03-02T02:33:42;6.60;86.44
25945;SHT31;13742;49.306;8.636;2024-03-02T02:34:39;6.59;86.73
25945;SHT31;13742;49.306;8.636;2024-03-02T02:35:39;6.62;86.65
25945;SHT31;13742;49.306;8.636;2024-03-02T02:36:40;6.62;86.74
25945;SHT31;13742;49.306;8.636;2024-03-02T02:37:39;6.59;86.68
25945;SHT31;13742;49.306;8.636;2024-03-02T02:38:44;6.57;86.59
25945;SHT31;13742;49.306;8.636;2024-03-02T02:39:39;6.60;86.93
25945;SHT31;13742;49.306;8.636;2024-03-02T02:40:39;6.59;86.83
25945;SHT31;13742;49.306;8.636;2024-03-02T02:41:39;6.59;86.66
25945;SHT31;13742;49.306;8.636;2024-03-02T02:42:39;6.56;86.75
25945;SHT31;13742;49.306;8.636;2024-03-02T02:43:40;6.59;86.80
25945;SHT31;13742;49.306;8.636;2024-03-02T02:44:39;6.55;86.97
25945;SHT31;13742;49.306;8.636;2024-03-02T02:45:39;6.57;86.89
25945;SHT31;13742;49.306;8.636;2024-03-02T02:46:39;6.56;87.30
25945;SHT31;13742;49.306;8.636;2024-03-02T02:47:39;6.59;87.22
25945;SHT31;13742;49.306;8.636;2024-03-02T02:48:39;6.59;86.95
25945;SHT31;13742;49.306;8.636;2024-03-02T02:49:39;6.57;87.07
25945;SHT31;13742;49.306;8.636;2024-03-02T02:50:39;6.56;87.00
25945;SHT31;13742;49.306;8.636;2024-03-02T02:51:39;6.59;86.86
25945;SHT31;13742;49.306;8.636;2024-03-02T02:52:41;6.57;86.97
25945;SHT31;13742;49.306;8.636;2024-03-02T02:53:40;6.57;87.00
25945;SHT31;13742;49.306;8.636;2024-03-02T02:54:39;6.56;86.99
25945;SHT31;13742;49.306;8.636;2024-03-02T02:55:40;6.53;86.97
25945;SHT31;13742;49.306;8.636;2024-03-02T02:56:39;6.56;86.99
25945;SHT31;13742;49.306;8.636;2024-03-02T02:57:40;6.53;86.81
25945;SHT31;13742;49.306;8.636;2024-03-02T02:58:40;6.55;86.87
25945;SHT31;13742;49.306;8.636;2024-03-02T02:59:39;6.53;87.02
25945;SHT31;13742;49.306;8.636;2024-03-02T03:00:40;6.56;87.18
25945;SHT31;13742;49.306;8.636;2024-03-02T03:01:39;6.56;87.05
25945;SHT31;13742;49.306;8.636;2024-03-02T03:02:39;6.53;86.96
25945;SHT31;13742;49.306;8.636;2024-03-02T03:03:39;6.52;86.90
25945;SHT31;13742;49.306;8.636;2024-03-02T03:04:40;6.53;86.81
25945;SHT31;13742;49.306;8.636;2024-03-02T03:05:39;6.53;86.94
25945;SHT31;13742;49.306;8.636;2024-03-02T03:06:39;6.52;87.05
25945;SHT31;13742;49.306;8.636;2024-03-02T03:07:40;6.53;87.07
25945;SHT31;13742;49.306;8.636;2024-03-02T03:08:39;6.53;87.10
25945;SHT31;13742;49.306;8.636;2024-03-02T03:09:39;6.52;87.05
25945;SHT31;13742;49.306;8.636;2024-03-02T03:10:39;6.52;87.28
25945;SHT31;13742;49.306;8.636;2024-03-02T03:11:39;6.53;87.36
25945;SHT31;13742;49.306;8.636;2024-03-02T03:12:41;6.53;87.16
25945;SHT31;13742;49.306;8.636;2024-03-02T03:13:39;6.53;87.16
25945;SHT31;13742;49.306;8.636;2024-03-02T03:14:40;6.51;87.06
25945;SHT31;13742;49.306;8.636;2024-03-02T03:15:39;6.51;87.46
25945;SHT31;13742;49.306;8.636;2024-03-02T03:16:39;6.49;87.22
25945;SHT31;13742;49.306;8.636;2024-03-02T03:17:39;6.48;87.37
25945;SHT31;13742;49.306;8.636;2024-03-02T03:18:39;6.46;87.57
25945;SHT31;13742;49.306;8.636;2024-03-02T03:19:39;6.46;87.33
25945;SHT31;13742;49.306;8.636;2024-03-02T03:20:39;6.48;87.40
25945;SHT31;13742;49.306;8.636;2024-03-02T03:21:39;6.45;87.21
25945;SHT31;13742;49.306;8.636;2024-03-02T03:22:39;6.46;86.99
25945;SHT31;13742;49.306;8.636;2024-03-02T03:23:39;6.43;87.52
25945;SHT31;13742;49.306;8.636;2024-03-02T03:24:39;6.43;87.52
25945;SHT31;13742;49.306;8.636;2024-03-02T03:25:39;6.45;87.49
25945;SHT31;13742;49.306;8.636;2024-03-02T03:26:39;6.43;87.53
25945;SHT31;13742;49.306;8.636;2024-03-02T03:27:39;6.43;87.59
25945;SHT31;13742;49.306;8.636;2024-03-02T03:28:39;6.42;87.63
25945;SHT31;13742;49.306;8.636;2024-03-02T03:29:39;6.42;87.74
25945;SHT31;13742;49.306;8.636;2024-03-02T03:30:39;6.42;87.80
25945;SHT31;13742;49.306;8.636;2024-03-02T03:31:39;6.43;87.96
25945;SHT31;13742;49.306;8.636;2024-03-02T03:32:39;6.43;87.71
25945;SHT31;13742;49.306;8.636;2024-03-02T03:33:39;6.43;87.60
25945;SHT31;13742;49.306;8.636;2024-03-02T03:34:39;6.42;87.74
25945;SHT31;13742;49.306;8.636;2024-03-02T03:35:39;6.45;87.64
25945;SHT31;13742;49.306;8.636;2024-03-02T03:36:38;6.43;87.77
25945;SHT31;13742;49.306;8.636;2024-03-02T03:37:39;6.45;87.60
25945;SHT31;13742;49.306;8.636;2024-03-02T03:38:38;6.46;87.60
25945;SHT31;13742;49.306;8.636;2024-03-02T03:39:39;6.46;87.68
25945;SHT31;13742;49.306;8.636;2024-03-02T03:40:39;6.46;87.53
25945;SHT31;13742;49.306;8.636;2024-03-02T03:41:40;6.49;87.48
25945;SHT31;13742;49.306;8.636;2024-03-02T03:42:39;6.48;87.60
25945;SHT31;13742;49.306;8.636;2024-03-02T03:43:39;6.49;87.67
25945;SHT31;13742;49.306;8.636;2024-03-02T03:44:40;6.49;87.41
25945;SHT31;13742;49.306;8.636;2024-03-02T03:45:39;6.48;87.41
25945;SHT31;13742;49.306;8.636;2024-03-02T03:46:38;6.49;87.59
25945;SHT31;13742;49.306;8.636;2024-03-02T03:47:39;6.48;87.52
25945;SHT31;13742;49.306;8.636;2024-03-02T03:48:38;6.45;87.53
25945;SHT31;13742;49.306;8.636;2024-03-02T03:49:38;6.45;87.55
25945;SHT31;13742;49.306;8.636;2024-03-02T03:50:39;6.46;87.41
25945;SHT31;13742;49.306;8.636;2024-03-02T03:51:38;6.48;87.43
25945;SHT31;13742;49.306;8.636;2024-03-02T03:52:39;6.48;87.47
25945;SHT31;13742;49.306;8.636;2024-03-02T03:53:39;6.46;87.31
25945;SHT31;13742;49.306;8.636;2024-03-02T03:54:39;6.45;87.38
25945;SHT31;13742;49.306;8.636;2024-03-02T03:55:39;6.46;87.59
25945;SHT31;13742;49.306;8.636;2024-03-02T03:56:39;6.51;87.45
25945;SHT31;13742;49.306;8.636;2024-03-02T03:57:39;6.48;87.47
25945;SHT31;13742;49.306;8.636;2024-03-02T03:58:39;6.51;87.52
25945;SHT31;13742;49.306;8.636;2024-03-02T03:59:38;6.51;87.59
25945;SHT31;13742;49.306;8.636;2024-03-02T04:00:38;6.48;87.34
25945;SHT31;13742;49.306;8.636;2024-03-02T04:01:38;6.51;87.49
25945;SHT31;13742;49.306;8.636;2024-03-02T04:02:39;6.49;87.45
25945;SHT31;13742;49.306;8.636;2024-03-02T04:03:39;6.49;87.48
25945;SHT31;13742;49.306;8.636;2024-03-02T04:04:38;6.48;87.53
25945;SHT31;13742;49.306;8.636;2024-03-02T04:05:38;6.49;87.63
25945;SHT31;13742;49.306;8.636;2024-03-02T04:06:39;6.46;87.57
25945;SHT31;13742;49.306;8.636;2024-03-02T04:07:43;6.46;87.61
25945;SHT31;13742;49.306;8.636;2024-03-02T04:08:38;6.49;87.56
25945;SHT31;13742;49.306;8.636;2024-03-02T04:09:38;6.48;87.45
25945;SHT31;13742;49.306;8.636;2024-03-02T04:10:40;6.49;87.46
25945;SHT31;13742;49.306;8.636;2024-03-02T04:11:38;6.48;87.46
25945;SHT31;13742;49.306;8.636;2024-03-02T04:12:39;6.48;87.41
25945;SHT31;13742;49.306;8.636;2024-03-02T04:13:39;6.51;87.64
25945;SHT31;13742;49.306;8.636;2024-03-02T04:14:39;6.51;87.69
25945;SHT31;13742;49.306;8.636;2024-03-02T04:15:39;6.51;87.41
25945;SHT31;13742;49.306;8.636;2024-03-02T04:16:39;6.49;87.28
25945;SHT31;13742;49.306;8.636;2024-03-02T04:17:38;6.51;87.44
25945;SHT31;13742;49.306;8.636;2024-03-02T04:18:39;6.49;87.57
25945;SHT31;13742;49.306;8.636;2024-03-02T04:19:39;6.51;87.47
25945;SHT31;13742;49.306;8.636;2024-03-02T04:20:38;6.52;87.36
25945;SHT31;13742;49.306;8.636;2024-03-02T04:21:38;6.53;87.31
25945;SHT31;13742;49.306;8.636;2024-03-02T04:22:38;6.52;87.39
25945;SHT31;13742;49.306;8.636;2024-03-02T04:23:38;6.53;87.21
25945;SHT31;13742;49.306;8.636;2024-03-02T04:24:38;6.55;87.20
25945;SHT31;13742;49.306;8.636;2024-03-02T04:25:38;6.55;87.10
25945;SHT31;13742;49.306;8.636;2024-03-02T04:26:38;6.49;87.02
25945;SHT31;13742;49.306;8.636;2024-03-02T04:27:39;6.55;87.23
25945;SHT31;13742;49.306;8.636;2024-03-02T04:28:38;6.53;87.03
25945;SHT31;13742;49.306;8.636;2024-03-02T04:29:39;6.53;86.96
25945;SHT31;13742;49.306;8.636;2024-03-02T04:30:39;6.56;86.72
25945;SHT31;13742;49.306;8.636;2024-03-02T04:31:39;6.56;86.90
25945;SHT31;13742;49.306;8.636;2024-03-02T04:32:38;6.56;86.88
25945;SHT31;13742;49.306;8.636;2024-03-02T04:33:38;6.56;86.92
25945;SHT31;13742;49.306;8.636;2024-03-02T04:34:38;6.59;86.92
25945;SHT31;13742;49.306;8.636;2024-03-02T04:35:38;6.57;86.93
25945;SHT31;13742;49.306;8.636;2024-03-02T04:36:38;6.57;86.89
25945;SHT31;13742;49.306;8.636;2024-03-02T04:37:38;6.57;86.99
25945;SHT31;13742;49.306;8.636;2024-03-02T04:38:38;6.59;87.03
25945;SHT31;13742;49.306;8.636;2024-03-02T04:39:38;6.57;86.94
25945;SHT31;13742;49.306;8.636;2024-03-02T04:40:38;6.57;86.97
25945;SHT31;13742;49.306;8.636;2024-03-02T04:41:39;6.59;87.03
25945;SHT31;13742;49.306;8.636;2024-03-02T04:42:38;6.59;86.95
25945;SHT31;13742;49.306;8.636;2024-03-02T04:43:38;6.57;86.89
25945;SHT31;13742;49.306;8.636;2024-03-02T04:44:38;6.56;86.87
25945;SHT31;13742;49.306;8.636;2024-03-02T04:45:38;6.56;86.87
25945;SHT31;13742;49.306;8.636;2024-03-02T04:46:38;6.57;86.89
25945;SHT31;13742;49.306;8.636;2024-03-02T04:47:38;6.55;86.77
25945;SHT31;13742;49.306;8.636;2024-03-02T04:48:38;6.56;86.89
25945;SHT31;13742;49.306;8.636;2024-03-02T04:49:38;6.53;86.66
25945;SHT31;13742;49.306;8.636;2024-03-02T04:50:38;6.56;86.82
25945;SHT31;13742;49.306;8.636;2024-03-02T04:51:38;6.52;86.79
25945;SHT31;13742;49.306;8.636;2024-03-02T04:52:39;6.52;86.74
25945;SHT31;13742;49.306;8.636;2024-03-02T04:53:38;6.51;86.70
25945;SHT31;13742;49.306;8.636;2024-03-02T04:54:53;6.51;86.74
25945;SHT31;13742;49.306;8.636;2024-03-02T04:55:56;6.52;86.78
25945;SHT31;13742;49.306;8.636;2024-03-02T04:56:43;6.53;86.74
25945;SHT31;13742;49.306;8.636;2024-03-02T04:57:38;6.53;86.77
25945;SHT31;13742;49.306;8.636;2024-03-02T04:58:38;6.52;86.70
25945;SHT31;13742;49.306;8.636;2024-03-02T04:59:38;6.52;86.76
25945;SHT31;13742;49.306;8.636;2024-03-02T05:00:38;6.46;86.58
25945;SHT31;13742;49.306;8.636;2024-03-02T05:01:39;6.46;86.52
25945;SHT31;13742;49.306;8.636;2024-03-02T05:02:38;6.46;86.53
25945;SHT31;13742;49.306;8.636;2024-03-02T05:03:38;6.49;86.67
25945;SHT31;13742;49.306;8.636;2024-03-02T05:04:38;6.48;86.61
25945;SHT31;13742;49.306;8.636;2024-03-02T05:05:39;6.49;86.62
25945;SHT31;13742;49.306;8.636;2024-03-02T05:06:40;6.46;86.55
25945;SHT31;13742;49.306;8.636;2024-03-02T05:07:38;6.48;86.47
25945;SHT31;13742;49.306;8.636;2024-03-02T05:08:38;6.46;86.36
25945;SHT31;13742;49.306;8.636;2024-03-02T05:09:39;6.46;86.39
25945;SHT31;13742;49.306;8.636;2024-03-02T05:10:38;6.43;86.30
25945;SHT31;13742;49.306;8.636;2024-03-02T05:11:54;6.46;86.38
25945;SHT31;13742;49.306;8.636;2024-03-02T05:12:44;6.48;86.44
25945;SHT31;13742;49.306;8.636;2024-03-02T05:13:38;6.46;86.37
25945;SHT31;13742;49.306;8.636;2024-03-02T05:14:38;6.46;86.32
25945;SHT31;13742;49.306;8.636;2024-03-02T05:15:39;6.45;86.23
25945;SHT31;13742;49.306;8.636;2024-03-02T05:16:38;6.41;86.19
25945;SHT31;13742;49.306;8.636;2024-03-02T05:17:40;6.41;86.18
25945;SHT31;13742;49.306;8.636;2024-03-02T05:18:38;6.38;86.17
25945;SHT31;13742;49.306;8.636;2024-03-02T05:19:38;6.38;86.10
25945;SHT31;13742;49.306;8.636;2024-03-02T05:20:38;6.36;86.10
25945;SHT31;13742;49.306;8.636;2024-03-02T05:21:38;6.36;86.16
25945;SHT31;13742;49.306;8.636;2024-03-02T05:22:39;6.35;86.33
25945;SHT31;13742;49.306;8.636;2024-03-02T05:23:38;6.36;86.50
25945;SHT31;13742;49.306;8.636;2024-03-02T05:24:38;6.35;86.23
25945;SHT31;13742;49.306;8.636;2024-03-02T05:25:38;6.35;86.49
25945;SHT31;13742;49.306;8.636;2024-03-02T05:26:38;6.32;86.55
25945;SHT31;13742;49.306;8.636;2024-03-02T05:27:39;6.31;86.44
25945;SHT31;13742;49.306;8.636;2024-03-02T05:28:38;6.31;86.24
25945;SHT31;13742;49.306;8.636;2024-03-02T05:29:38;6.32;86.40
25945;SHT31;13742;49.306;8.636;2024-03-02T05:30:38;6.31;86.47
25945;SHT31;13742;49.306;8.636;2024-03-02T05:31:38;6.28;86.38
25945;SHT31;13742;49.306;8.636;2024-03-02T05:32:38;6.28;86.41
25945;SHT31;13742;49.306;8.636;2024-03-02T05:33:38;6.29;86.49
25945;SHT31;13742;49.306;8.636;2024-03-02T05:34:38;6.26;86.45
25945;SHT31;13742;49.306;8.636;2024-03-02T05:35:38;6.26;86.36
25945;SHT31;13742;49.306;8.636;2024-03-02T05:36:39;6.22;86.36
25945;SHT31;13742;49.306;8.636;2024-03-02T05:37:39;6.25;86.41
25945;SHT31;13742;49.306;8.636;2024-03-02T05:38:38;6.22;86.27
25945;SHT31;13742;49.306;8.636;2024-03-02T05:39:38;6.21;86.28
25945;SHT31;13742;49.306;8.636;2024-03-02T05:40:38;6.21;86.27
25945;SHT31;13742;49.306;8.636;2024-03-02T05:41:39;6.20;86.32
25945;SHT31;13742;49.306;8.636;2024-03-02T05:42:39;6.20;86.21
25945;SHT31;13742;49.306;8.636;2024-03-02T05:43:39;6.18;86.28
25945;SHT31;13742;49.306;8.636;2024-03-02T05:44:38;6.17;86.35
25945;SHT31;13742;49.306;8.636;2024-03-02T05:45:39;6.15;86.31
25945;SHT31;13742;49.306;8.636;2024-03-02T05:46:38;6.14;86.17
25945;SHT31;13742;49.306;8.636;2024-03-02T05:47:39;6.12;86.08
25945;SHT31;13742;49.306;8.636;2024-03-02T05:48:38;6.11;86.13
25945;SHT31;13742;49.306;8.636;2024-03-02T05:49:39;6.11;86.05
25945;SHT31;13742;49.306;8.636;2024-03-02T05:50:38;6.07;86.06
25945;SHT31;13742;49.306;8.636;2024-03-02T05:51:38;6.07;86.05
25945;SHT31;13742;49.306;8.636;2024-03-02T05:52:39;6.04;86.10
25945;SHT31;13742;49.306;8.636;2024-03-02T05:53:38;6.03;86.22
25945;SHT31;13742;49.306;8.636;2024-03-02T05:54:39;6.03;86.34
25945;SHT31;13742;49.306;8.636;2024-03-02T05:55:39;6.01;86.30
25945;SHT31;13742;49.306;8.636;2024-03-02T05:56:38;6.01;86.78
25945;SHT31;13742;49.306;8.636;2024-03-02T05:57:43;6.03;86.76
25945;SHT31;13742;49.306;8.636;2024-03-02T05:58:43;5.97;86.60
25945;SHT31;13742;49.306;8.636;2024-03-02T05:59:38;5.96;86.69
25945;SHT31;13742;49.306;8.636;2024-03-02T06:00:38;5.98;86.95
25945;SHT31;13742;49.306;8.636;2024-03-02T06:01:42;5.98;87.11
25945;SHT31;13742;49.306;8.636;2024-03-02T06:02:39;5.97;87.19
25945;SHT31;13742;49.306;8.636;2024-03-02T06:03:38;5.98;87.25
25945;SHT31;13742;49.306;8.636;2024-03-02T06:04:38;6.00;86.95
25945;SHT31;13742;49.306;8.636;2024-03-02T06:05:38;6.01;87.20
25945;SHT31;13742;49.306;8.636;2024-03-02T06:06:39;6.01;87.23
25945;SHT31;13742;49.306;8.636;2024-03-02T06:07:38;6.03;87.13
25945;SHT31;13742;49.306;8.636;2024-03-02T06:08:38;6.01;87.07
25945;SHT31;13742;49.306;8.636;2024-03-02T06:09:38;6.01;87.18
25945;SHT31;13742;49.306;8.636;2024-03-02T06:10:38;6.04;87.04
25945;SHT31;13742;49.306;8.636;2024-03-02T06:11:40;6.04;87.00
25945;SHT31;13742;49.306;8.636;2024-03-02T06:12:38;6.01;86.93
25945;SHT31;13742;49.306;8.636;2024-03-02T06:13:38;6.05;87.16
25945;SHT31;13742;49.306;8.636;2024-03-02T06:14:38;6.03;87.08
25945;SHT31;13742;49.306;8.636;2024-03-02T06:15:38;6.05;87.13
25945;SHT31;13742;49.306;8.636;2024-03-02T06:16:38;6.04;87.10
25945;SHT31;13742;49.306;8.636;2024-03-02T06:17:38;6.05;87.00
25945;SHT31;13742;49.306;8.636;2024-03-02T06:18:39;6.05;87.10
25945;SHT31;13742;49.306;8.636;2024-03-02T06:19:38;6.03;87.03
25945;SHT31;13742;49.306;8.636;2024-03-02T06:20:38;6.05;86.96
25945;SHT31;13742;49.306;8.636;2024-03-02T06:21:40;6.05;86.80
25945;SHT31;13742;49.306;8.636;2024-03-02T06:22:38;6.05;86.95
25945;SHT31;13742;49.306;8.636;2024-03-02T06:23:38;6.07;87.13
25945;SHT31;13742;49.306;8.636;2024-03-02T06:24:38;6.04;86.91
25945;SHT31;13742;49.306;8.636;2024-03-02T06:25:38;6.05;86.93